createdAt,value
2018-08-20T00:00:58.765Z,0.00
2018-08-20T00:01:58.974Z,0.00
2018-08-20T00:02:58.583Z,0.00
2018-08-20T00:03:58.479Z,0.00
2018-08-20T00:04:58.390Z,0.00
2018-08-20T00:05:58.297Z,0.00
2018-08-20T00:06:58.194Z,0.00
2018-08-20T00:07:58.105Z,0.00
2018-08-20T00:08:58.001Z,0.00
2018-08-20T00:09:57.909Z,0.00
2018-08-20T00:10:57.806Z,0.00
2018-08-20T00:11:57.721Z,0.00
2018-08-20T00:12:57.616Z,0.00
2018-08-20T00:13:57.520Z,0.00
2018-08-20T00:14:57.431Z,0.00
2018-08-20T00:15:57.329Z,0.00
2018-08-20T00:16:57.236Z,0.00
2018-08-20T00:17:57.133Z,0.00
2018-08-20T00:18:57.043Z,0.00
2018-08-20T00:19:56.952Z,0.00
2018-08-20T00:20:56.848Z,0.00
2018-08-20T00:21:56.758Z,0.00
2018-08-20T00:22:56.654Z,0.00
2018-08-20T00:23:56.564Z,0.00
2018-08-20T00:24:56.473Z,0.00
2018-08-20T00:25:56.369Z,0.00
2018-08-20T00:26:56.278Z,0.00
2018-08-20T00:27:56.176Z,0.00
2018-08-20T00:28:56.084Z,0.00
2018-08-20T00:29:55.984Z,0.00
2018-08-20T00:30:55.889Z,0.00
2018-08-20T00:31:56.052Z,0.00
2018-08-20T00:32:55.696Z,0.00
2018-08-20T00:33:55.605Z,0.00
2018-08-20T00:34:55.501Z,0.00
2018-08-20T00:35:55.412Z,0.00
2018-08-20T00:36:55.309Z,0.00
2018-08-20T00:37:55.217Z,0.00
2018-08-20T00:38:55.128Z,0.00
2018-08-20T00:39:55.026Z,0.00
2018-08-20T00:40:54.931Z,0.00
2018-08-20T00:41:55.128Z,0.00
2018-08-20T00:42:54.738Z,0.00
2018-08-20T00:43:54.646Z,0.00
2018-08-20T00:44:54.547Z,0.00
2018-08-20T00:45:54.453Z,0.00
2018-08-20T00:46:54.353Z,0.00
2018-08-20T00:47:54.259Z,0.00
2018-08-20T00:48:54.155Z,0.00
2018-08-20T00:49:54.066Z,0.00
2018-08-20T00:50:53.963Z,0.00
2018-08-20T00:51:53.871Z,0.00
2018-08-20T00:52:53.780Z,0.00
2018-08-20T00:53:53.677Z,0.00
2018-08-20T00:54:53.586Z,0.00
2018-08-20T00:55:53.482Z,0.00
2018-08-20T00:56:53.392Z,0.00
2018-08-20T00:57:53.289Z,0.00
2018-08-20T00:58:53.198Z,0.00
2018-08-20T00:59:53.108Z,0.00
2018-08-20T01:00:53.004Z,0.00
2018-08-20T01:01:52.912Z,0.00
2018-08-20T01:02:52.809Z,0.00
2018-08-20T01:03:52.719Z,0.00
2018-08-20T01:04:52.618Z,0.00
2018-08-20T01:05:52.525Z,0.00
2018-08-20T01:06:52.422Z,0.00
2018-08-20T01:07:52.332Z,0.00
2018-08-20T01:08:52.240Z,0.00
2018-08-20T01:09:52.135Z,0.00
2018-08-20T01:10:52.046Z,0.00
2018-08-20T01:11:51.949Z,0.00
2018-08-20T01:12:51.851Z,0.00
2018-08-20T01:13:51.747Z,0.00
2018-08-20T01:14:51.657Z,0.00
2018-08-20T01:15:51.567Z,0.00
2018-08-20T01:16:51.462Z,0.00
2018-08-20T01:17:51.372Z,0.00
2018-08-20T01:18:51.270Z,0.00
2018-08-20T01:19:51.178Z,0.00
2018-08-20T01:20:51.075Z,0.00
2018-08-20T01:21:50.984Z,0.00
2018-08-20T01:22:50.880Z,0.00
2018-08-20T01:23:50.792Z,0.00
2018-08-20T01:24:50.688Z,0.00
2018-08-20T01:25:50.596Z,0.00
2018-08-20T01:26:50.754Z,0.00
2018-08-20T01:27:50.413Z,0.00
2018-08-20T01:28:50.310Z,0.00
2018-08-20T01:29:50.208Z,0.00
2018-08-20T01:30:50.118Z,0.00
2018-08-20T01:31:50.015Z,0.00
2018-08-20T01:32:49.923Z,0.00
2018-08-20T01:33:49.832Z,0.00
2018-08-20T01:34:49.729Z,0.00
2018-08-20T01:35:49.639Z,0.00
2018-08-20T01:36:49.784Z,0.00
2018-08-20T01:37:49.443Z,0.00
2018-08-20T01:38:49.341Z,0.00
2018-08-20T01:39:49.250Z,0.00
2018-08-20T01:40:49.159Z,0.00
2018-08-20T01:41:49.058Z,0.00
2018-08-20T01:42:48.965Z,0.00
2018-08-20T01:43:48.864Z,0.00
2018-08-20T01:44:48.769Z,0.00
2018-08-20T01:45:48.667Z,0.00
2018-08-20T01:46:48.876Z,0.00
2018-08-20T01:47:48.485Z,0.00
2018-08-20T01:48:48.381Z,0.00
2018-08-20T01:49:48.292Z,0.00
2018-08-20T01:50:48.188Z,0.00
2018-08-20T01:51:48.099Z,0.00
2018-08-20T01:52:47.993Z,0.00
2018-08-20T01:53:47.915Z,0.00
2018-08-20T01:54:47.813Z,0.00
2018-08-20T01:55:47.709Z,0.00
2018-08-20T01:56:47.869Z,0.00
2018-08-20T01:57:47.514Z,0.00
2018-08-20T01:58:47.423Z,0.00
2018-08-20T01:59:47.320Z,0.00
2018-08-20T02:00:47.230Z,0.00
2018-08-20T02:01:47.139Z,0.00
2018-08-20T02:02:47.035Z,0.00
2018-08-20T02:03:46.945Z,0.00
2018-08-20T02:04:46.842Z,0.00
2018-08-20T02:05:46.753Z,0.00
2018-08-20T02:06:46.648Z,0.00
2018-08-20T02:07:46.557Z,0.00
2018-08-20T02:08:46.454Z,0.00
2018-08-20T02:09:46.363Z,0.00
2018-08-20T02:10:46.271Z,0.00
2018-08-20T02:11:46.168Z,0.00
2018-08-20T02:12:46.077Z,0.00
2018-08-20T02:13:45.974Z,0.00
2018-08-20T02:14:45.884Z,0.00
2018-08-20T02:15:45.809Z,0.00
2018-08-20T02:16:45.990Z,0.00
2018-08-20T02:17:45.599Z,0.00
2018-08-20T02:18:45.496Z,0.00
2018-08-20T02:19:45.404Z,0.00
2018-08-20T02:20:45.300Z,0.00
2018-08-20T02:21:45.211Z,0.00
2018-08-20T02:22:45.107Z,0.00
2018-08-20T02:23:45.016Z,0.00
2018-08-20T02:24:44.925Z,0.00
2018-08-20T02:25:44.822Z,0.00
2018-08-20T02:26:44.980Z,0.00
2018-08-20T02:27:44.627Z,0.00
2018-08-20T02:28:44.537Z,0.00
2018-08-20T02:29:44.436Z,0.00
2018-08-20T02:30:44.343Z,0.00
2018-08-20T02:31:44.252Z,0.00
2018-08-20T02:32:44.148Z,0.00
2018-08-20T02:33:44.057Z,0.00
2018-08-20T02:34:43.954Z,0.00
2018-08-20T02:35:43.864Z,0.00
2018-08-20T02:36:44.062Z,0.00
2018-08-20T02:37:43.669Z,0.00
2018-08-20T02:38:43.568Z,0.00
2018-08-20T02:39:43.477Z,0.00
2018-08-20T02:40:43.386Z,0.00
2018-08-20T02:41:43.297Z,0.00
2018-08-20T02:42:43.191Z,0.00
2018-08-20T02:43:43.088Z,0.00
2018-08-20T02:44:42.998Z,0.00
2018-08-20T02:45:42.896Z,0.00
2018-08-20T02:46:43.053Z,0.00
2018-08-20T02:47:42.712Z,0.00
2018-08-20T02:48:42.609Z,0.00
2018-08-20T02:49:42.518Z,0.00
2018-08-20T02:50:42.415Z,0.00
2018-08-20T02:51:42.323Z,0.00
2018-08-20T02:52:42.219Z,0.00
2018-08-20T02:53:42.131Z,0.00
2018-08-20T02:54:42.038Z,0.00
2018-08-20T02:55:41.937Z,0.00
2018-08-20T02:56:42.144Z,0.00
2018-08-20T02:57:41.741Z,0.00
2018-08-20T02:58:41.651Z,0.00
2018-08-20T02:59:41.547Z,0.00
2018-08-20T03:00:41.457Z,0.00
2018-08-20T03:01:41.354Z,0.00
2018-08-20T03:02:41.262Z,0.00
2018-08-20T03:03:41.190Z,0.00
2018-08-20T03:04:41.069Z,0.00
2018-08-20T03:05:40.977Z,0.00
2018-08-20T03:06:40.878Z,0.00
2018-08-20T03:07:40.784Z,0.00
2018-08-20T03:08:40.682Z,0.00
2018-08-20T03:09:40.590Z,0.00
2018-08-20T03:10:40.486Z,0.00
2018-08-20T03:11:40.398Z,0.00
2018-08-20T03:12:40.304Z,0.00
2018-08-20T03:13:40.200Z,0.00
2018-08-20T03:14:40.112Z,0.00
2018-08-20T03:15:40.006Z,0.00
2018-08-20T03:16:40.165Z,0.00
2018-08-20T03:17:39.812Z,0.00
2018-08-20T03:18:39.723Z,0.00
2018-08-20T03:19:39.619Z,0.00
2018-08-20T03:20:39.527Z,0.00
2018-08-20T03:21:39.425Z,0.00
2018-08-20T03:22:39.336Z,0.00
2018-08-20T03:23:39.242Z,4.00
2018-08-20T03:24:39.139Z,4.00
2018-08-20T03:25:39.049Z,4.00
2018-08-20T03:26:38.950Z,4.00
2018-08-20T03:27:38.855Z,4.00
2018-08-20T03:28:38.752Z,8.00
2018-08-20T03:29:38.661Z,4.00
2018-08-20T03:30:38.561Z,8.00
2018-08-20T03:31:38.461Z,8.00
2018-08-20T03:32:38.365Z,8.00
2018-08-20T03:33:38.274Z,12.00
2018-08-20T03:34:38.182Z,12.00
2018-08-20T03:35:38.090Z,16.00
2018-08-20T03:36:37.991Z,20.00
2018-08-20T03:37:37.885Z,20.00
2018-08-20T03:38:37.792Z,24.00
2018-08-20T03:39:37.690Z,28.00
2018-08-20T03:40:37.600Z,32.00
2018-08-20T03:41:37.796Z,36.00
2018-08-20T03:42:37.407Z,40.00
2018-08-20T03:43:37.301Z,48.00
2018-08-20T03:44:37.211Z,56.00
2018-08-20T03:45:37.108Z,64.00
2018-08-20T03:46:37.016Z,68.00
2018-08-20T03:47:36.914Z,80.00
2018-08-20T03:48:36.823Z,88.00
2018-08-20T03:49:36.726Z,96.00
2018-08-20T03:50:36.629Z,108.00
2018-08-20T03:51:36.539Z,124.00
2018-08-20T03:52:36.437Z,132.00
2018-08-20T03:53:36.343Z,144.00
2018-08-20T03:54:36.241Z,160.00
2018-08-20T03:55:36.150Z,176.00
2018-08-20T03:56:36.060Z,192.00
2018-08-20T03:57:35.955Z,212.00
2018-08-20T03:58:35.851Z,232.00
2018-08-20T03:59:35.762Z,248.00
2018-08-20T04:00:35.658Z,268.00
2018-08-20T04:01:35.567Z,296.00
2018-08-20T04:02:35.463Z,316.00
2018-08-20T04:03:35.373Z,340.00
2018-08-20T04:04:35.275Z,364.00
2018-08-20T04:05:35.178Z,388.00
2018-08-20T04:06:35.075Z,416.00
2018-08-20T04:07:34.986Z,440.00
2018-08-20T04:08:34.882Z,468.00
2018-08-20T04:09:34.790Z,496.00
2018-08-20T04:10:34.688Z,524.00
2018-08-20T04:11:34.598Z,556.00
2018-08-20T04:12:34.494Z,588.00
2018-08-20T04:13:34.403Z,620.00
2018-08-20T04:14:34.311Z,652.00
2018-08-20T04:15:34.211Z,684.00
2018-08-20T04:16:34.118Z,724.00
2018-08-20T04:17:34.014Z,760.00
2018-08-20T04:18:33.924Z,792.00
2018-08-20T04:19:33.820Z,828.00
2018-08-20T04:20:33.730Z,868.00
2018-08-20T04:21:33.625Z,908.00
2018-08-20T04:22:33.536Z,948.00
2018-08-20T04:23:33.434Z,992.00
2018-08-20T04:24:33.340Z,1036.00
2018-08-20T04:25:33.236Z,1080.00
2018-08-20T04:26:33.151Z,1128.00
2018-08-20T04:27:33.044Z,1180.00
2018-08-20T04:28:32.952Z,1224.00
2018-08-20T04:29:32.849Z,1268.00
2018-08-20T04:30:32.812Z,1320.00
2018-08-20T04:31:32.667Z,1372.00
2018-08-20T04:32:32.564Z,1428.00
2018-08-20T04:33:32.474Z,1484.00
2018-08-20T04:34:32.370Z,1540.00
2018-08-20T04:35:32.279Z,1608.00
2018-08-20T04:36:32.221Z,1664.00
2018-08-20T04:37:32.086Z,1724.00
2018-08-20T04:38:31.983Z,1784.00
2018-08-20T04:39:31.891Z,1848.00
2018-08-20T04:40:31.801Z,1904.00
2018-08-20T04:41:31.697Z,1956.00
2018-08-20T04:42:31.605Z,2008.00
2018-08-20T04:43:31.503Z,2068.00
2018-08-20T04:44:31.413Z,2140.00
2018-08-20T04:45:31.323Z,2212.00
2018-08-20T04:46:31.217Z,2292.00
2018-08-20T04:47:31.127Z,2376.00
2018-08-20T04:48:31.025Z,2460.00
2018-08-20T04:49:30.932Z,2548.00
2018-08-20T04:50:31.008Z,2640.00
2018-08-20T04:51:30.872Z,2704.00
2018-08-20T04:52:30.648Z,2760.00
2018-08-20T04:53:30.557Z,2812.00
2018-08-20T04:54:30.455Z,2888.00
2018-08-20T04:55:30.362Z,2944.00
2018-08-20T04:56:30.274Z,3000.00
2018-08-20T04:57:30.170Z,3020.00
2018-08-20T04:58:30.078Z,3044.00
2018-08-20T04:59:29.988Z,3072.00
2018-08-20T05:00:29.884Z,3088.00
2018-08-20T05:01:30.043Z,3100.00
2018-08-20T05:02:29.703Z,3152.00
2018-08-20T05:03:29.611Z,3184.00
2018-08-20T05:04:29.508Z,3208.00
2018-08-20T05:05:29.418Z,3240.00
2018-08-20T05:06:29.339Z,3268.00
2018-08-20T05:07:29.224Z,3332.00
2018-08-20T05:08:29.133Z,3356.00
2018-08-20T05:09:29.041Z,3376.00
2018-08-20T05:10:28.952Z,3492.00
2018-08-20T05:11:28.848Z,3592.00
2018-08-20T05:12:28.757Z,3692.00
2018-08-20T05:13:28.666Z,3712.00
2018-08-20T05:14:28.576Z,3800.00
2018-08-20T05:15:28.475Z,3884.00
2018-08-20T05:16:28.382Z,3956.00
2018-08-20T05:17:28.289Z,4012.00
2018-08-20T05:18:28.200Z,4084.00
2018-08-20T05:19:28.097Z,4052.00
2018-08-20T05:20:28.005Z,4116.00
2018-08-20T05:21:28.167Z,4224.00
2018-08-20T05:22:27.824Z,4452.00
2018-08-20T05:23:27.722Z,4776.00
2018-08-20T05:24:27.641Z,4836.00
2018-08-20T05:25:27.538Z,4968.00
2018-08-20T05:26:27.449Z,4972.00
2018-08-20T05:27:27.357Z,4852.00
2018-08-20T05:28:27.254Z,5132.00
2018-08-20T05:29:27.187Z,5044.00
2018-08-20T05:30:27.071Z,5208.00
2018-08-20T05:31:26.982Z,4448.00
2018-08-20T05:32:26.892Z,5364.00
2018-08-20T05:33:26.800Z,5472.00
2018-08-20T05:34:26.698Z,5612.00
2018-08-20T05:35:26.605Z,5872.00
2018-08-20T05:36:26.516Z,4904.00
2018-08-20T05:37:26.424Z,5444.00
2018-08-20T05:38:26.333Z,5920.00
2018-08-20T05:39:26.242Z,6248.00
2018-08-20T05:40:26.152Z,6392.00
2018-08-20T05:41:26.049Z,5224.00
2018-08-20T05:42:25.957Z,7192.00
2018-08-20T05:43:25.868Z,5904.00
2018-08-20T05:44:25.775Z,6704.00
2018-08-20T05:45:25.685Z,5420.00
2018-08-20T05:46:25.599Z,7228.00
2018-08-20T05:47:25.504Z,7304.00
2018-08-20T05:48:25.412Z,6312.00
2018-08-20T05:49:25.323Z,7688.00
2018-08-20T05:50:25.223Z,6280.00
2018-08-20T05:51:25.128Z,7404.00
2018-08-20T05:52:25.054Z,6628.00
2018-08-20T05:53:24.946Z,6144.00
2018-08-20T05:54:24.856Z,8412.00
2018-08-20T05:55:24.764Z,7044.00
2018-08-20T05:56:24.676Z,8232.00
2018-08-20T05:57:24.585Z,8620.00
2018-08-20T05:58:24.492Z,10388.00
2018-08-20T05:59:24.406Z,11080.00
2018-08-20T06:00:24.311Z,8452.00
2018-08-20T06:01:24.219Z,11116.00
2018-08-20T06:02:24.130Z,8796.00
2018-08-20T06:03:24.040Z,9644.00
2018-08-20T06:04:23.937Z,7560.00
2018-08-20T06:05:23.844Z,10112.00
2018-08-20T06:06:23.765Z,8068.00
2018-08-20T06:07:23.663Z,9272.00
2018-08-20T06:08:23.577Z,9468.00
2018-08-20T06:09:23.480Z,11368.00
2018-08-20T06:10:23.389Z,8596.00
2018-08-20T06:11:23.301Z,11808.00
2018-08-20T06:12:23.208Z,9024.00
2018-08-20T06:13:23.118Z,8140.00
2018-08-20T06:14:23.026Z,8480.00
2018-08-20T06:15:23.043Z,7556.00
2018-08-20T06:16:22.845Z,7452.00
2018-08-20T06:17:22.754Z,7876.00
2018-08-20T06:18:22.664Z,8112.00
2018-08-20T06:19:22.574Z,10436.00
2018-08-20T06:20:22.482Z,11852.00
2018-08-20T06:21:22.392Z,11404.00
2018-08-20T06:22:22.301Z,10228.00
2018-08-20T06:23:22.224Z,12468.00
2018-08-20T06:24:22.120Z,9772.00
2018-08-20T06:25:22.029Z,9612.00
2018-08-20T06:26:21.939Z,8116.00
2018-08-20T06:27:21.859Z,8500.00
2018-08-20T06:28:21.769Z,10312.00
2018-08-20T06:29:21.679Z,9128.00
2018-08-20T06:30:21.590Z,10932.00
2018-08-20T06:31:21.495Z,12140.00
2018-08-20T06:32:21.405Z,14336.00
2018-08-20T06:33:21.314Z,12788.00
2018-08-20T06:34:21.224Z,12724.00
2018-08-20T06:35:21.132Z,12764.00
2018-08-20T06:36:21.042Z,10296.00
2018-08-20T06:37:20.953Z,9184.00
2018-08-20T06:38:20.861Z,9980.00
2018-08-20T06:39:20.778Z,11356.00
2018-08-20T06:40:20.679Z,12468.00
2018-08-20T06:41:20.837Z,14168.00
2018-08-20T06:42:20.498Z,13704.00
2018-08-20T06:43:20.406Z,12300.00
2018-08-20T06:44:20.316Z,10008.00
2018-08-20T06:45:20.238Z,9588.00
2018-08-20T06:46:20.135Z,11804.00
2018-08-20T06:47:20.045Z,12188.00
2018-08-20T06:48:19.966Z,11484.00
2018-08-20T06:49:19.875Z,11956.00
2018-08-20T06:50:19.788Z,13860.00
2018-08-20T06:51:19.693Z,13032.00
2018-08-20T06:52:19.604Z,13920.00
2018-08-20T06:53:19.511Z,13188.00
2018-08-20T06:54:19.420Z,12112.00
2018-08-20T06:55:19.332Z,11548.00
2018-08-20T06:56:19.237Z,11928.00
2018-08-20T06:57:19.148Z,13936.00
2018-08-20T06:58:19.071Z,15720.00
2018-08-20T06:59:18.966Z,17024.00
2018-08-20T07:00:18.879Z,18752.00
2018-08-20T07:01:18.785Z,17632.00
2018-08-20T07:02:18.693Z,12272.00
2018-08-20T07:03:18.603Z,14496.00
2018-08-20T07:04:18.511Z,11172.00
2018-08-20T07:05:18.427Z,12500.00
2018-08-20T07:06:18.349Z,16020.00
2018-08-20T07:07:18.265Z,16220.00
2018-08-20T07:08:18.162Z,13756.00
2018-08-20T07:09:18.070Z,9724.00
2018-08-20T07:10:17.981Z,7768.00
2018-08-20T07:11:17.888Z,6832.00
2018-08-20T07:12:17.799Z,6388.00
2018-08-20T07:13:17.707Z,6416.00
2018-08-20T07:14:17.617Z,7360.00
2018-08-20T07:15:17.524Z,7720.00
2018-08-20T07:16:17.435Z,8972.00
2018-08-20T07:17:17.346Z,10032.00
2018-08-20T07:18:17.264Z,10484.00
2018-08-20T07:19:17.175Z,10648.00
2018-08-20T07:20:17.083Z,10900.00
2018-08-20T07:21:16.994Z,11256.00
2018-08-20T07:22:16.901Z,11620.00
2018-08-20T07:23:16.815Z,12112.00
2018-08-20T07:24:16.720Z,13224.00
2018-08-20T07:25:16.634Z,13716.00
2018-08-20T07:26:16.543Z,13740.00
2018-08-20T07:27:16.449Z,14440.00
2018-08-20T07:28:16.357Z,14704.00
2018-08-20T07:29:16.267Z,14780.00
2018-08-20T07:30:16.175Z,15616.00
2018-08-20T07:31:16.084Z,15572.00
2018-08-20T07:32:15.993Z,15444.00
2018-08-20T07:33:15.903Z,15044.00
2018-08-20T07:34:15.811Z,15448.00
2018-08-20T07:35:15.722Z,15780.00
2018-08-20T07:36:15.631Z,16036.00
2018-08-20T07:37:15.545Z,15628.00
2018-08-20T07:38:15.462Z,15188.00
2018-08-20T07:39:15.360Z,15536.00
2018-08-20T07:40:15.266Z,16108.00
2018-08-20T07:41:15.178Z,16540.00
2018-08-20T07:42:15.133Z,16852.00
2018-08-20T07:43:14.996Z,17408.00
2018-08-20T07:44:14.903Z,17440.00
2018-08-20T07:45:14.813Z,16792.00
2018-08-20T07:46:14.721Z,16020.00
2018-08-20T07:47:14.640Z,15836.00
2018-08-20T07:48:14.540Z,16624.00
2018-08-20T07:49:14.449Z,17120.00
2018-08-20T07:50:14.359Z,16868.00
2018-08-20T07:51:14.268Z,16336.00
2018-08-20T07:52:14.177Z,16036.00
2018-08-20T07:53:14.087Z,15492.00
2018-08-20T07:54:13.996Z,15404.00
2018-08-20T07:55:13.906Z,15624.00
2018-08-20T07:56:13.814Z,15712.00
2018-08-20T07:57:13.724Z,15252.00
2018-08-20T07:58:13.632Z,14336.00
2018-08-20T07:59:13.542Z,13944.00
2018-08-20T08:00:13.453Z,13880.00
2018-08-20T08:01:13.362Z,13640.00
2018-08-20T08:02:13.272Z,13816.00
2018-08-20T08:03:13.180Z,13564.00
2018-08-20T08:04:13.090Z,13352.00
2018-08-20T08:05:12.998Z,13084.00
2018-08-20T08:06:12.912Z,12896.00
2018-08-20T08:07:12.816Z,12612.00
2018-08-20T08:08:12.726Z,12552.00
2018-08-20T08:09:12.635Z,12376.00
2018-08-20T08:10:12.547Z,12592.00
2018-08-20T08:11:12.454Z,12664.00
2018-08-20T08:12:12.362Z,12764.00
2018-08-20T08:13:12.272Z,12872.00
2018-08-20T08:14:12.226Z,13048.00
2018-08-20T08:15:12.090Z,13344.00
2018-08-20T08:16:12.001Z,13664.00
2018-08-20T08:17:11.908Z,14700.00
2018-08-20T08:18:11.830Z,15092.00
2018-08-20T08:19:11.727Z,15196.00
2018-08-20T08:20:11.636Z,15128.00
2018-08-20T08:21:11.545Z,15104.00
2018-08-20T08:22:11.455Z,15168.00
2018-08-20T08:23:11.363Z,15020.00
2018-08-20T08:24:11.260Z,15240.00
2018-08-20T08:25:11.170Z,14924.00
2018-08-20T08:26:11.078Z,14644.00
2018-08-20T08:27:10.988Z,14928.00
2018-08-20T08:28:10.897Z,14252.00
2018-08-20T08:29:10.805Z,13436.00
2018-08-20T08:30:10.715Z,13784.00
2018-08-20T08:31:10.624Z,13196.00
2018-08-20T08:32:10.533Z,12564.00
2018-08-20T08:33:10.443Z,13244.00
2018-08-20T08:34:10.351Z,13188.00
2018-08-20T08:35:10.259Z,12620.00
2018-08-20T08:36:10.171Z,12172.00
2018-08-20T08:37:10.081Z,12232.00
2018-08-20T08:38:10.011Z,12668.00
2018-08-20T08:39:09.899Z,12968.00
2018-08-20T08:40:09.807Z,12524.00
2018-08-20T08:41:09.716Z,12172.00
2018-08-20T08:42:09.625Z,12156.00
2018-08-20T08:43:09.535Z,12580.00
2018-08-20T08:44:09.448Z,13528.00
2018-08-20T08:45:09.353Z,13844.00
2018-08-20T08:46:09.262Z,13628.00
2018-08-20T08:47:09.170Z,14060.00
2018-08-20T08:48:09.081Z,14800.00
2018-08-20T08:49:08.988Z,15312.00
2018-08-20T08:50:08.899Z,16468.00
2018-08-20T08:51:08.820Z,17344.00
2018-08-20T08:52:08.704Z,18240.00
2018-08-20T08:53:08.614Z,17632.00
2018-08-20T08:54:08.522Z,16944.00
2018-08-20T08:55:08.433Z,16608.00
2018-08-20T08:56:08.340Z,17472.00
2018-08-20T08:57:08.250Z,17824.00
2018-08-20T08:58:08.159Z,17856.00
2018-08-20T08:59:08.068Z,18016.00
2018-08-20T09:00:07.976Z,18848.00
2018-08-20T09:01:07.887Z,19296.00
2018-08-20T09:02:07.796Z,19168.00
2018-08-20T09:03:07.706Z,19008.00
2018-08-20T09:04:07.615Z,19840.00
2018-08-20T09:05:07.524Z,20704.00
2018-08-20T09:06:07.435Z,21888.00
2018-08-20T09:07:07.342Z,21696.00
2018-08-20T09:08:07.251Z,21184.00
2018-08-20T09:09:07.161Z,21184.00
2018-08-20T09:10:07.072Z,21536.00
2018-08-20T09:11:06.980Z,21632.00
2018-08-20T09:12:06.888Z,21568.00
2018-08-20T09:13:06.800Z,21920.00
2018-08-20T09:14:06.706Z,22784.00
2018-08-20T09:15:06.616Z,23712.00
2018-08-20T09:16:06.524Z,23808.00
2018-08-20T09:17:06.437Z,22400.00
2018-08-20T09:18:06.348Z,20992.00
2018-08-20T09:19:06.253Z,20832.00
2018-08-20T09:20:06.163Z,20992.00
2018-08-20T09:21:06.072Z,21440.00
2018-08-20T09:22:05.980Z,21760.00
2018-08-20T09:23:05.889Z,22624.00
2018-08-20T09:24:05.798Z,22304.00
2018-08-20T09:25:05.709Z,22752.00
2018-08-20T09:26:05.617Z,23552.00
2018-08-20T09:27:05.526Z,21408.00
2018-08-20T09:28:05.437Z,22144.00
2018-08-20T09:29:05.345Z,24096.00
2018-08-20T09:30:05.256Z,24320.00
2018-08-20T09:31:05.175Z,21600.00
2018-08-20T09:32:05.085Z,19904.00
2018-08-20T09:33:04.997Z,20320.00
2018-08-20T09:34:04.905Z,20576.00
2018-08-20T09:35:04.812Z,20000.00
2018-08-20T09:36:04.972Z,19328.00
2018-08-20T09:37:04.630Z,18976.00
2018-08-20T09:38:04.540Z,18880.00
2018-08-20T09:39:04.448Z,18912.00
2018-08-20T09:40:04.413Z,18528.00
2018-08-20T09:41:04.269Z,16620.00
2018-08-20T09:42:04.176Z,17120.00
2018-08-20T09:43:04.085Z,17152.00
2018-08-20T09:44:03.998Z,14532.00
2018-08-20T09:45:03.905Z,13044.00
2018-08-20T09:46:03.828Z,13728.00
2018-08-20T09:47:03.735Z,13428.00
2018-08-20T09:48:03.657Z,13436.00
2018-08-20T09:49:03.554Z,13880.00
2018-08-20T09:50:03.462Z,13400.00
2018-08-20T09:51:03.372Z,12652.00
2018-08-20T09:52:03.283Z,12104.00
2018-08-20T09:53:03.190Z,11744.00
2018-08-20T09:54:03.099Z,10612.00
2018-08-20T09:55:03.009Z,9524.00
2018-08-20T09:56:02.916Z,8540.00
2018-08-20T09:57:02.827Z,7956.00
2018-08-20T09:58:02.737Z,7920.00
2018-08-20T09:59:02.699Z,8664.00
2018-08-20T10:00:02.567Z,10356.00
2018-08-20T10:01:02.498Z,12336.00
2018-08-20T10:02:02.374Z,13864.00
2018-08-20T10:03:02.282Z,14692.00
2018-08-20T10:04:02.193Z,13828.00
2018-08-20T10:05:02.100Z,12732.00
2018-08-20T10:06:02.010Z,12720.00
2018-08-20T10:07:01.918Z,11608.00
2018-08-20T10:08:01.828Z,12100.00
2018-08-20T10:09:01.741Z,12592.00
2018-08-20T10:10:01.646Z,12856.00
2018-08-20T10:11:01.556Z,12448.00
2018-08-20T10:12:01.465Z,11836.00
2018-08-20T10:13:01.374Z,11096.00
2018-08-20T10:14:01.284Z,10368.00
2018-08-20T10:15:01.193Z,9920.00
2018-08-20T10:16:01.102Z,10300.00
2018-08-20T10:17:01.011Z,10564.00
2018-08-20T10:18:00.920Z,10400.00
2018-08-20T10:19:00.832Z,10076.00
2018-08-20T10:20:00.739Z,9956.00
2018-08-20T10:21:00.648Z,10540.00
2018-08-20T10:22:00.556Z,11156.00
2018-08-20T10:23:00.466Z,11948.00
2018-08-20T10:24:00.376Z,13084.00
2018-08-20T10:25:00.286Z,14096.00
2018-08-20T10:26:00.193Z,15196.00
2018-08-20T10:27:00.104Z,15868.00
2018-08-20T10:28:00.013Z,15304.00
2018-08-20T10:28:59.922Z,14620.00
2018-08-20T10:29:59.830Z,14672.00
2018-08-20T10:30:59.740Z,15252.00
2018-08-20T10:31:59.689Z,15844.00
2018-08-20T10:32:59.546Z,16196.00
2018-08-20T10:33:59.456Z,16504.00
2018-08-20T10:34:59.364Z,16564.00
2018-08-20T10:35:59.277Z,16644.00
2018-08-20T10:36:59.182Z,17632.00
2018-08-20T10:37:59.193Z,18432.00
2018-08-20T10:38:59.001Z,18752.00
2018-08-20T10:39:58.910Z,18272.00
2018-08-20T10:40:58.819Z,17008.00
2018-08-20T10:41:58.728Z,16220.00
2018-08-20T10:42:58.637Z,16480.00
2018-08-20T10:43:58.548Z,19680.00
2018-08-20T10:44:58.455Z,25152.00
2018-08-20T10:45:58.365Z,43232.00
2018-08-20T10:46:58.274Z,68064.00
2018-08-20T10:47:58.184Z,54496.00
2018-08-20T10:48:58.095Z,42144.00
2018-08-20T10:49:58.030Z,41824.00
2018-08-20T10:50:57.912Z,32992.00
2018-08-20T10:51:57.832Z,29440.00
2018-08-20T10:52:57.742Z,28160.00
2018-08-20T10:53:57.650Z,28320.00
2018-08-20T10:54:57.565Z,28416.00
2018-08-20T10:55:57.469Z,25248.00
2018-08-20T10:56:57.379Z,25024.00
2018-08-20T10:57:57.287Z,25504.00
2018-08-20T10:58:57.197Z,22144.00
2018-08-20T10:59:57.106Z,20704.00
2018-08-20T11:00:57.027Z,19424.00
2018-08-20T11:01:56.970Z,17920.00
2018-08-20T11:02:56.846Z,17376.00
2018-08-20T11:03:56.759Z,16260.00
2018-08-20T11:04:56.664Z,15800.00
2018-08-20T11:05:56.575Z,14760.00
2018-08-20T11:06:56.482Z,12060.00
2018-08-20T11:07:56.393Z,9704.00
2018-08-20T11:08:56.314Z,7948.00
2018-08-20T11:09:56.248Z,7148.00
2018-08-20T11:10:56.193Z,6756.00
2018-08-20T11:11:56.041Z,6744.00
2018-08-20T11:12:55.952Z,6408.00
2018-08-20T11:13:55.859Z,6220.00
2018-08-20T11:14:55.769Z,7060.00
2018-08-20T11:15:55.678Z,8584.00
2018-08-20T11:16:55.588Z,9888.00
2018-08-20T11:17:55.515Z,11648.00
2018-08-20T11:18:55.418Z,12920.00
2018-08-20T11:19:55.327Z,14400.00
2018-08-20T11:20:55.237Z,14036.00
2018-08-20T11:21:55.148Z,15584.00
2018-08-20T11:22:55.055Z,16512.00
2018-08-20T11:23:54.966Z,15528.00
2018-08-20T11:24:54.877Z,14160.00
2018-08-20T11:25:54.783Z,12912.00
2018-08-20T11:26:54.715Z,12024.00
2018-08-20T11:27:54.601Z,11104.00
2018-08-20T11:28:54.514Z,10752.00
2018-08-20T11:29:54.420Z,10816.00
2018-08-20T11:30:54.329Z,10152.00
2018-08-20T11:31:54.239Z,9796.00
2018-08-20T11:32:54.149Z,9100.00
2018-08-20T11:33:54.062Z,8808.00
2018-08-20T11:34:53.965Z,9372.00
2018-08-20T11:35:53.900Z,10500.00
2018-08-20T11:36:53.789Z,14868.00
2018-08-20T11:37:53.693Z,19072.00
2018-08-20T11:38:53.604Z,20352.00
2018-08-20T11:39:53.512Z,20704.00
2018-08-20T11:40:53.421Z,19712.00
2018-08-20T11:41:53.334Z,18944.00
2018-08-20T11:42:53.240Z,19008.00
2018-08-20T11:43:53.148Z,19360.00
2018-08-20T11:44:53.060Z,19744.00
2018-08-20T11:45:52.979Z,19968.00
2018-08-20T11:46:52.889Z,19808.00
2018-08-20T11:47:52.800Z,19072.00
2018-08-20T11:48:52.708Z,18016.00
2018-08-20T11:49:52.616Z,16724.00
2018-08-20T11:50:52.525Z,13068.00
2018-08-20T11:51:52.436Z,11728.00
2018-08-20T11:52:52.345Z,13012.00
2018-08-20T11:53:52.252Z,13960.00
2018-08-20T11:54:52.162Z,12276.00
2018-08-20T11:55:52.070Z,11136.00
2018-08-20T11:56:51.980Z,11172.00
2018-08-20T11:57:51.889Z,10184.00
2018-08-20T11:58:51.800Z,9704.00
2018-08-20T11:59:51.720Z,9216.00
2018-08-20T12:00:51.616Z,8668.00
2018-08-20T12:01:51.548Z,8404.00
2018-08-20T12:02:51.438Z,8044.00
2018-08-20T12:03:51.348Z,7812.00
2018-08-20T12:04:51.254Z,7732.00
2018-08-20T12:05:51.163Z,8492.00
2018-08-20T12:06:51.102Z,9852.00
2018-08-20T12:07:51.086Z,11260.00
2018-08-20T12:08:50.890Z,11816.00
2018-08-20T12:09:50.799Z,10984.00
2018-08-20T12:10:50.709Z,10072.00
2018-08-20T12:11:50.621Z,10460.00
2018-08-20T12:12:50.518Z,11776.00
2018-08-20T12:13:50.437Z,12676.00
2018-08-20T12:14:50.334Z,12656.00
2018-08-20T12:15:50.246Z,13260.00
2018-08-20T12:16:50.152Z,14288.00